Mitchellville, Arkansas
Current Conditions -  °F | °C
As of 12:53 AM on Tuesday 21 Oct 2014 (Local Time) from KLLQ Reporting Station
Clear Clear  
Wind Chill: 57°   Ceiling: Unl
Heat Index: 57°   Visibility: 10mi
Dew Point: 54°   Wind: 0mph
Humidity: 89%   Direction: NA
Pressure: 30.05"   Gusts: NA
Location:  33.9283°N, 91.468°W
Report Text: KLLQ 210553Z AUTO 00000KT 10SM CLR 14/12 A3005 RMK AO2 SLP173 60000 T01390122 10172 20133 402330072 58002
Loading
Personal Weather Stations






























Interactive Weather Map
Tropical Storm Tracking
New forecast layout! Learn more

10-Day Weather Forecast

Advertisements
Track Severe Weather on mobile